NAVACERRADA, MADRID

latitud = 40° 46' 50''N | longitud = 004° 00' 37''W
1894 metros sobre el nivel del mar | datos mensuales

Fecha, hora, temperatura, viento dirección y velocidad, humedad y presión.

  • 16-08-2018 02:00:00 | 17.30°C | Noroeste |5.00 km/h | 38.00% | 816.60 hPa
  • 16-08-2018 01:00:00 | 17.30°C | Norte |7.00 km/h | 36.00% | 816.80 hPa
  • 16-08-2018 00:00:00 | 17.00°C | Nordeste |6.00 km/h | 37.00% | 816.80 hPa
  • 15-08-2018 23:00:00 | 17.20°C | Norte |9.00 km/h | 38.00% | 817.10 hPa
  • 15-08-2018 22:00:00 | 17.50°C | Norte |10.00 km/h | 38.00% | 816.90 hPa
  • 15-08-2018 21:00:00 | 19.60°C | Noroeste |8.00 km/h | 37.00% | 816.50 hPa
  • 15-08-2018 20:00:00 | 20.90°C | Noroeste |7.00 km/h | 38.00% | 816.40 hPa
  • 15-08-2018 19:00:00 | 22.60°C | Norte |6.00 km/h | 38.00% | 816.50 hPa
  • 15-08-2018 18:00:00 | 22.30°C | Nordeste |3.00 km/h | 41.00% | 816.80 hPa
  • 15-08-2018 17:00:00 | 24.20°C | Este |6.00 km/h | 38.00% | 816.90 hPa
  • 15-08-2018 16:00:00 | 23.80°C | Sudoeste |8.00 km/h | 37.00% | 817.10 hPa
  • 15-08-2018 15:00:00 | 24.80°C | Sudoeste |14.00 km/h | 37.00% | 817.40 hPa
  • 15-08-2018 14:00:00 | 24.00°C | Sudoeste |12.00 km/h | 39.00% | 817.60 hPa
  • 15-08-2018 13:00:00 | 22.30°C | Sudoeste |12.00 km/h | 42.00% | 817.80 hPa
  • 15-08-2018 12:00:00 | 21.30°C | Sur |10.00 km/h | 45.00% | 817.70 hPa
  • 15-08-2018 11:00:00 | 20.70°C | Sur |12.00 km/h | 45.00% | 817.30 hPa
  • 15-08-2018 10:00:00 | 19.60°C | Sur |11.00 km/h | 41.00% | 817.10 hPa
  • 15-08-2018 09:00:00 | 17.20°C | Sur |16.00 km/h | 45.00% | 817.00 hPa
  • 15-08-2018 08:00:00 | 14.60°C | Sur |12.00 km/h | 48.00% | 816.90 hPa
  • 15-08-2018 07:00:00 | 14.30°C | Sur |14.00 km/h | 48.00% | 816.80 hPa
  • 15-08-2018 06:00:00 | 13.70°C | Sur |19.00 km/h | 53.00% | 816.90 hPa
  • 15-08-2018 05:00:00 | 13.70°C | Sur |14.00 km/h | 53.00% | 817.20 hPa
  • 15-08-2018 04:00:00 | 14.00°C | Sur |12.00 km/h | 51.00% | 817.40 hPa
  • 15-08-2018 03:00:00 | 14.80°C | Sur |8.00 km/h | 48.00% | 817.80 hPa